sensor_id;sensor_type;location;lat;lon;timestamp;P1;durP1;ratioP1;P2;durP2;ratioP2
19084;SDS011;9675;51.538;6.728;2023-04-06T00:01:07;5.10;;;2.10;;
19084;SDS011;9675;51.538;6.728;2023-04-06T00:03:34;6.67;;;2.40;;
19084;SDS011;9675;51.538;6.728;2023-04-06T00:06:02;11.07;;;2.53;;
19084;SDS011;9675;51.538;6.728;2023-04-06T00:08:30;3.80;;;1.97;;
19084;SDS011;9675;51.538;6.728;2023-04-06T00:10:57;4.97;;;2.23;;
19084;SDS011;9675;51.538;6.728;2023-04-06T00:13:24;4.30;;;2.23;;
19084;SDS011;9675;51.538;6.728;2023-04-06T00:15:51;6.63;;;2.93;;
19084;SDS011;9675;51.538;6.728;2023-04-06T00:18:19;7.30;;;2.13;;
19084;SDS011;9675;51.538;6.728;2023-04-06T00:20:47;5.37;;;2.03;;
19084;SDS011;9675;51.538;6.728;2023-04-06T00:23:15;3.97;;;2.20;;
19084;SDS011;9675;51.538;6.728;2023-04-06T00:25:43;4.70;;;2.00;;
19084;SDS011;9675;51.538;6.728;2023-04-06T00:28:10;5.13;;;2.40;;
19084;SDS011;9675;51.538;6.728;2023-04-06T00:30:37;7.17;;;2.80;;
19084;SDS011;9675;51.538;6.728;2023-04-06T00:33:04;4.40;;;1.80;;
19084;SDS011;9675;51.538;6.728;2023-04-06T00:35:33;5.87;;;2.20;;
19084;SDS011;9675;51.538;6.728;2023-04-06T00:38:01;7.33;;;1.93;;
19084;SDS011;9675;51.538;6.728;2023-04-06T00:40:28;4.73;;;1.80;;
19084;SDS011;9675;51.538;6.728;2023-04-06T00:42:56;4.50;;;2.63;;
19084;SDS011;9675;51.538;6.728;2023-04-06T00:45:23;5.60;;;2.03;;
19084;SDS011;9675;51.538;6.728;2023-04-06T00:47:50;9.73;;;1.97;;
19084;SDS011;9675;51.538;6.728;2023-04-06T00:50:17;4.73;;;2.17;;
19084;SDS011;9675;51.538;6.728;2023-04-06T00:52:46;7.20;;;2.27;;
19084;SDS011;9675;51.538;6.728;2023-04-06T00:55:13;4.60;;;2.23;;
19084;SDS011;9675;51.538;6.728;2023-04-06T00:57:40;4.37;;;2.00;;
19084;SDS011;9675;51.538;6.728;2023-04-06T01:00:08;4.17;;;2.03;;
19084;SDS011;9675;51.538;6.728;2023-04-06T01:02:37;4.33;;;2.30;;
19084;SDS011;9675;51.538;6.728;2023-04-06T01:05:04;4.93;;;2.00;;
19084;SDS011;9675;51.538;6.728;2023-04-06T01:07:33;3.60;;;2.00;;
19084;SDS011;9675;51.538;6.728;2023-04-06T01:10:01;4.07;;;1.70;;
19084;SDS011;9675;51.538;6.728;2023-04-06T01:12:29;3.30;;;1.83;;
19084;SDS011;9675;51.538;6.728;2023-04-06T01:14:56;4.43;;;1.87;;
19084;SDS011;9675;51.538;6.728;2023-04-06T01:17:24;5.73;;;2.20;;
19084;SDS011;9675;51.538;6.728;2023-04-06T01:19:51;2.80;;;2.23;;
19084;SDS011;9675;51.538;6.728;2023-04-06T01:22:20;4.90;;;2.20;;
19084;SDS011;9675;51.538;6.728;2023-04-06T01:24:47;3.00;;;1.90;;
19084;SDS011;9675;51.538;6.728;2023-04-06T01:27:14;3.93;;;2.00;;
19084;SDS011;9675;51.538;6.728;2023-04-06T01:33:23;3.80;;;1.87;;
19084;SDS011;9675;51.538;6.728;2023-04-06T01:35:50;3.07;;;1.80;;
19084;SDS011;9675;51.538;6.728;2023-04-06T01:38:19;3.97;;;1.87;;
19084;SDS011;9675;51.538;6.728;2023-04-06T01:40:46;5.63;;;2.90;;
19084;SDS011;9675;51.538;6.728;2023-04-06T01:43:13;3.83;;;2.13;;
19084;SDS011;9675;51.538;6.728;2023-04-06T01:45:43;4.10;;;2.23;;
19084;SDS011;9675;51.538;6.728;2023-04-06T01:48:10;5.00;;;2.50;;
19084;SDS011;9675;51.538;6.728;2023-04-06T01:50:38;5.47;;;2.30;;
19084;SDS011;9675;51.538;6.728;2023-04-06T01:53:05;6.17;;;2.40;;
19084;SDS011;9675;51.538;6.728;2023-04-06T01:55:33;4.40;;;2.20;;
19084;SDS011;9675;51.538;6.728;2023-04-06T01:58:00;8.00;;;3.00;;
19084;SDS011;9675;51.538;6.728;2023-04-06T02:00:28;5.40;;;2.70;;
19084;SDS011;9675;51.538;6.728;2023-04-06T02:02:55;5.43;;;2.53;;
19084;SDS011;9675;51.538;6.728;2023-04-06T02:05:22;4.50;;;2.43;;
19084;SDS011;9675;51.538;6.728;2023-04-06T02:07:49;5.37;;;2.90;;
19084;SDS011;9675;51.538;6.728;2023-04-06T02:10:16;7.33;;;2.60;;
19084;SDS011;9675;51.538;6.728;2023-04-06T02:12:45;7.30;;;3.00;;
19084;SDS011;9675;51.538;6.728;2023-04-06T02:15:12;5.23;;;2.30;;
19084;SDS011;9675;51.538;6.728;2023-04-06T02:17:39;5.80;;;2.07;;
19084;SDS011;9675;51.538;6.728;2023-04-06T02:20:07;4.70;;;2.20;;
19084;SDS011;9675;51.538;6.728;2023-04-06T02:22:35;6.87;;;2.70;;
19084;SDS011;9675;51.538;6.728;2023-04-06T02:25:03;5.10;;;2.60;;
19084;SDS011;9675;51.538;6.728;2023-04-06T02:27:30;7.63;;;2.53;;
19084;SDS011;9675;51.538;6.728;2023-04-06T02:29:59;4.33;;;2.40;;
19084;SDS011;9675;51.538;6.728;2023-04-06T02:32:26;9.23;;;3.53;;
19084;SDS011;9675;51.538;6.728;2023-04-06T02:34:53;7.13;;;2.73;;
19084;SDS011;9675;51.538;6.728;2023-04-06T02:37:20;5.03;;;2.43;;
19084;SDS011;9675;51.538;6.728;2023-04-06T02:39:49;9.23;;;3.30;;
19084;SDS011;9675;51.538;6.728;2023-04-06T02:42:16;5.37;;;2.83;;
19084;SDS011;9675;51.538;6.728;2023-04-06T02:44:43;8.60;;;3.40;;
19084;SDS011;9675;51.538;6.728;2023-04-06T02:47:11;8.10;;;3.40;;
19084;SDS011;9675;51.538;6.728;2023-04-06T02:49:39;6.57;;;3.37;;
19084;SDS011;9675;51.538;6.728;2023-04-06T02:52:06;7.30;;;2.93;;
19084;SDS011;9675;51.538;6.728;2023-04-06T02:54:33;9.83;;;3.40;;
19084;SDS011;9675;51.538;6.728;2023-04-06T02:57:00;11.23;;;4.30;;
19084;SDS011;9675;51.538;6.728;2023-04-06T02:59:27;6.83;;;3.43;;
19084;SDS011;9675;51.538;6.728;2023-04-06T03:01:54;8.27;;;3.43;;
19084;SDS011;9675;51.538;6.728;2023-04-06T03:04:23;7.90;;;3.27;;
19084;SDS011;9675;51.538;6.728;2023-04-06T03:06:50;13.40;;;3.57;;
19084;SDS011;9675;51.538;6.728;2023-04-06T03:09:17;7.97;;;3.57;;
19084;SDS011;9675;51.538;6.728;2023-04-06T03:11:44;8.80;;;3.77;;
19084;SDS011;9675;51.538;6.728;2023-04-06T03:14:12;7.43;;;3.37;;
19084;SDS011;9675;51.538;6.728;2023-04-06T03:16:39;8.17;;;3.80;;
19084;SDS011;9675;51.538;6.728;2023-04-06T03:19:06;9.43;;;3.57;;
19084;SDS011;9675;51.538;6.728;2023-04-06T03:21:34;13.10;;;3.77;;
19084;SDS011;9675;51.538;6.728;2023-04-06T03:24:01;5.60;;;3.57;;
19084;SDS011;9675;51.538;6.728;2023-04-06T03:26:29;10.97;;;3.60;;
19084;SDS011;9675;51.538;6.728;2023-04-06T03:28:56;13.07;;;3.83;;
19084;SDS011;9675;51.538;6.728;2023-04-06T03:31:23;6.33;;;3.53;;
19084;SDS011;9675;51.538;6.728;2023-04-06T03:33:52;9.03;;;3.40;;
19084;SDS011;9675;51.538;6.728;2023-04-06T03:36:19;4.97;;;3.13;;
19084;SDS011;9675;51.538;6.728;2023-04-06T03:38:48;11.30;;;3.47;;
19084;SDS011;9675;51.538;6.728;2023-04-06T03:41:15;5.50;;;3.10;;
19084;SDS011;9675;51.538;6.728;2023-04-06T03:43:42;14.53;;;4.20;;
19084;SDS011;9675;51.538;6.728;2023-04-06T03:46:09;11.70;;;4.70;;
19084;SDS011;9675;51.538;6.728;2023-04-06T03:48:37;6.57;;;3.37;;
19084;SDS011;9675;51.538;6.728;2023-04-06T03:51:04;6.40;;;3.43;;
19084;SDS011;9675;51.538;6.728;2023-04-06T03:53:31;6.60;;;3.63;;
19084;SDS011;9675;51.538;6.728;2023-04-06T03:55:59;7.33;;;3.37;;
19084;SDS011;9675;51.538;6.728;2023-04-06T03:58:26;10.13;;;4.17;;
19084;SDS011;9675;51.538;6.728;2023-04-06T04:00:54;7.57;;;3.93;;
19084;SDS011;9675;51.538;6.728;2023-04-06T04:03:21;10.53;;;3.37;;
19084;SDS011;9675;51.538;6.728;2023-04-06T04:05:48;5.60;;;2.80;;
19084;SDS011;9675;51.538;6.728;2023-04-06T04:08:16;8.73;;;3.53;;
19084;SDS011;9675;51.538;6.728;2023-04-06T04:10:43;10.20;;;4.07;;
19084;SDS011;9675;51.538;6.728;2023-04-06T04:13:11;8.50;;;3.83;;
19084;SDS011;9675;51.538;6.728;2023-04-06T04:15:38;7.73;;;3.60;;
19084;SDS011;9675;51.538;6.728;2023-04-06T04:18:06;10.50;;;4.10;;
19084;SDS011;9675;51.538;6.728;2023-04-06T04:20:33;8.47;;;4.30;;
19084;SDS011;9675;51.538;6.728;2023-04-06T04:23:00;11.67;;;3.80;;
19084;SDS011;9675;51.538;6.728;2023-04-06T04:25:27;10.17;;;3.90;;
19084;SDS011;9675;51.538;6.728;2023-04-06T04:27:54;10.83;;;4.33;;
19084;SDS011;9675;51.538;6.728;2023-04-06T04:30:23;9.73;;;4.53;;
19084;SDS011;9675;51.538;6.728;2023-04-06T04:32:50;7.50;;;3.43;;
19084;SDS011;9675;51.538;6.728;2023-04-06T04:35:17;7.93;;;3.60;;
19084;SDS011;9675;51.538;6.728;2023-04-06T04:37:44;7.93;;;4.53;;
19084;SDS011;9675;51.538;6.728;2023-04-06T04:40:12;10.43;;;3.63;;
19084;SDS011;9675;51.538;6.728;2023-04-06T04:42:39;10.00;;;4.23;;
19084;SDS011;9675;51.538;6.728;2023-04-06T04:45:06;8.13;;;3.40;;
19084;SDS011;9675;51.538;6.728;2023-04-06T04:47:36;5.90;;;3.47;;
19084;SDS011;9675;51.538;6.728;2023-04-06T04:50:03;10.63;;;3.83;;
19084;SDS011;9675;51.538;6.728;2023-04-06T04:52:31;7.47;;;4.00;;
19084;SDS011;9675;51.538;6.728;2023-04-06T04:54:58;8.80;;;3.60;;
19084;SDS011;9675;51.538;6.728;2023-04-06T04:57:26;7.60;;;3.80;;
19084;SDS011;9675;51.538;6.728;2023-04-06T04:59:53;5.53;;;3.13;;
19084;SDS011;9675;51.538;6.728;2023-04-06T05:02:20;9.93;;;3.93;;
19084;SDS011;9675;51.538;6.728;2023-04-06T05:04:48;9.90;;;3.90;;
19084;SDS011;9675;51.538;6.728;2023-04-06T05:07:15;8.60;;;3.90;;
19084;SDS011;9675;51.538;6.728;2023-04-06T05:09:45;10.33;;;5.13;;
19084;SDS011;9675;51.538;6.728;2023-04-06T05:12:13;9.10;;;3.70;;
19084;SDS011;9675;51.538;6.728;2023-04-06T05:14:40;8.23;;;4.40;;
19084;SDS011;9675;51.538;6.728;2023-04-06T05:17:07;8.30;;;4.20;;
19084;SDS011;9675;51.538;6.728;2023-04-06T05:19:35;6.87;;;4.13;;
19084;SDS011;9675;51.538;6.728;2023-04-06T05:22:04;9.13;;;4.27;;
19084;SDS011;9675;51.538;6.728;2023-04-06T05:24:31;5.87;;;4.03;;
19084;SDS011;9675;51.538;6.728;2023-04-06T05:27:00;8.20;;;4.33;;
19084;SDS011;9675;51.538;6.728;2023-04-06T05:29:28;13.77;;;4.00;;
19084;SDS011;9675;51.538;6.728;2023-04-06T05:31:56;8.00;;;3.80;;
19084;SDS011;9675;51.538;6.728;2023-04-06T05:34:24;11.63;;;4.87;;
19084;SDS011;9675;51.538;6.728;2023-04-06T05:36:51;4.67;;;2.80;;
19084;SDS011;9675;51.538;6.728;2023-04-06T05:39:19;7.50;;;4.00;;
19084;SDS011;9675;51.538;6.728;2023-04-06T05:41:47;6.93;;;3.90;;
19084;SDS011;9675;51.538;6.728;2023-04-06T05:44:17;10.60;;;4.03;;
19084;SDS011;9675;51.538;6.728;2023-04-06T05:46:45;7.47;;;3.63;;
19084;SDS011;9675;51.538;6.728;2023-04-06T05:49:12;10.93;;;3.47;;
19084;SDS011;9675;51.538;6.728;2023-04-06T05:51:39;9.50;;;3.97;;
19084;SDS011;9675;51.538;6.728;2023-04-06T05:54:06;6.90;;;3.90;;
19084;SDS011;9675;51.538;6.728;2023-04-06T05:56:35;9.87;;;3.73;;
19084;SDS011;9675;51.538;6.728;2023-04-06T05:59:02;7.50;;;3.97;;
19084;SDS011;9675;51.538;6.728;2023-04-06T06:01:29;6.93;;;3.57;;
19084;SDS011;9675;51.538;6.728;2023-04-06T06:03:56;7.30;;;3.53;;
19084;SDS011;9675;51.538;6.728;2023-04-06T06:06:23;6.47;;;3.43;;
19084;SDS011;9675;51.538;6.728;2023-04-06T06:08:51;12.73;;;3.63;;
19084;SDS011;9675;51.538;6.728;2023-04-06T06:11:18;7.10;;;3.70;;
19084;SDS011;9675;51.538;6.728;2023-04-06T06:13:46;6.43;;;3.23;;
19084;SDS011;9675;51.538;6.728;2023-04-06T06:16:14;9.47;;;3.80;;
19084;SDS011;9675;51.538;6.728;2023-04-06T06:18:43;9.13;;;4.40;;
19084;SDS011;9675;51.538;6.728;2023-04-06T06:21:10;6.37;;;3.50;;
19084;SDS011;9675;51.538;6.728;2023-04-06T06:23:38;9.57;;;3.00;;
19084;SDS011;9675;51.538;6.728;2023-04-06T06:26:05;8.13;;;3.50;;
19084;SDS011;9675;51.538;6.728;2023-04-06T06:28:32;8.30;;;3.80;;
19084;SDS011;9675;51.538;6.728;2023-04-06T06:31:01;7.57;;;4.33;;
19084;SDS011;9675;51.538;6.728;2023-04-06T06:33:29;8.13;;;3.30;;
19084;SDS011;9675;51.538;6.728;2023-04-06T06:35:57;5.80;;;3.33;;
19084;SDS011;9675;51.538;6.728;2023-04-06T06:38:25;13.60;;;3.40;;
19084;SDS011;9675;51.538;6.728;2023-04-06T06:40:52;11.10;;;3.83;;
19084;SDS011;9675;51.538;6.728;2023-04-06T06:43:23;6.13;;;3.10;;
19084;SDS011;9675;51.538;6.728;2023-04-06T06:45:51;10.50;;;4.53;;
19084;SDS011;9675;51.538;6.728;2023-04-06T06:48:22;7.80;;;3.83;;
19084;SDS011;9675;51.538;6.728;2023-04-06T06:50:52;10.80;;;3.60;;
19084;SDS011;9675;51.538;6.728;2023-04-06T06:53:23;11.63;;;4.13;;
19084;SDS011;9675;51.538;6.728;2023-04-06T06:56:00;6.87;;;3.57;;
19084;SDS011;9675;51.538;6.728;2023-04-06T06:58:27;9.10;;;3.17;;
19084;SDS011;9675;51.538;6.728;2023-04-06T07:00:58;8.67;;;3.77;;
19084;SDS011;9675;51.538;6.728;2023-04-06T07:03:27;11.03;;;3.40;;
19084;SDS011;9675;51.538;6.728;2023-04-06T07:05:55;10.00;;;3.83;;
19084;SDS011;9675;51.538;6.728;2023-04-06T07:08:22;8.17;;;4.10;;
19084;SDS011;9675;51.538;6.728;2023-04-06T07:10:51;9.80;;;3.70;;
19084;SDS011;9675;51.538;6.728;2023-04-06T07:13:21;8.30;;;3.33;;
19084;SDS011;9675;51.538;6.728;2023-04-06T07:15:48;10.33;;;4.17;;
19084;SDS011;9675;51.538;6.728;2023-04-06T07:18:16;8.40;;;3.23;;
19084;SDS011;9675;51.538;6.728;2023-04-06T07:20:45;12.73;;;4.23;;
19084;SDS011;9675;51.538;6.728;2023-04-06T07:23:12;7.13;;;3.17;;
19084;SDS011;9675;51.538;6.728;2023-04-06T07:25:40;15.40;;;4.40;;
19084;SDS011;9675;51.538;6.728;2023-04-06T07:28:07;6.63;;;3.43;;
19084;SDS011;9675;51.538;6.728;2023-04-06T07:30:34;7.90;;;3.60;;
19084;SDS011;9675;51.538;6.728;2023-04-06T07:33:04;9.17;;;3.80;;
19084;SDS011;9675;51.538;6.728;2023-04-06T07:35:31;7.07;;;3.20;;
19084;SDS011;9675;51.538;6.728;2023-04-06T07:38:01;10.93;;;4.63;;
19084;SDS011;9675;51.538;6.728;2023-04-06T07:40:28;7.60;;;3.60;;
19084;SDS011;9675;51.538;6.728;2023-04-06T07:42:57;7.33;;;3.57;;
19084;SDS011;9675;51.538;6.728;2023-04-06T07:45:24;12.67;;;3.67;;
19084;SDS011;9675;51.538;6.728;2023-04-06T07:47:51;6.30;;;3.67;;
19084;SDS011;9675;51.538;6.728;2023-04-06T07:50:18;9.73;;;4.10;;
19084;SDS011;9675;51.538;6.728;2023-04-06T07:52:46;10.77;;;3.57;;
19084;SDS011;9675;51.538;6.728;2023-04-06T07:55:15;9.23;;;4.40;;
19084;SDS011;9675;51.538;6.728;2023-04-06T07:57:43;11.47;;;4.60;;
19084;SDS011;9675;51.538;6.728;2023-04-06T08:00:11;7.73;;;3.70;;
19084;SDS011;9675;51.538;6.728;2023-04-06T08:02:40;15.63;;;4.27;;
19084;SDS011;9675;51.538;6.728;2023-04-06T08:05:07;9.90;;;3.67;;
19084;SDS011;9675;51.538;6.728;2023-04-06T08:07:35;11.03;;;3.67;;
19084;SDS011;9675;51.538;6.728;2023-04-06T08:10:03;12.00;;;4.87;;
19084;SDS011;9675;51.538;6.728;2023-04-06T08:12:33;8.00;;;4.07;;
19084;SDS011;9675;51.538;6.728;2023-04-06T08:15:01;8.73;;;3.93;;
19084;SDS011;9675;51.538;6.728;2023-04-06T08:17:29;9.83;;;3.33;;
19084;SDS011;9675;51.538;6.728;2023-04-06T08:19:59;11.90;;;4.07;;
19084;SDS011;9675;51.538;6.728;2023-04-06T08:22:27;8.63;;;4.43;;
19084;SDS011;9675;51.538;6.728;2023-04-06T08:24:54;7.67;;;3.70;;
19084;SDS011;9675;51.538;6.728;2023-04-06T08:27:21;10.40;;;4.83;;
19084;SDS011;9675;51.538;6.728;2023-04-06T08:29:50;8.83;;;3.00;;
19084;SDS011;9675;51.538;6.728;2023-04-06T08:32:17;9.80;;;4.63;;
19084;SDS011;9675;51.538;6.728;2023-04-06T08:34:45;11.60;;;4.57;;
19084;SDS011;9675;51.538;6.728;2023-04-06T08:37:13;12.43;;;4.80;;
19084;SDS011;9675;51.538;6.728;2023-04-06T08:39:40;17.10;;;4.97;;
19084;SDS011;9675;51.538;6.728;2023-04-06T08:42:10;9.77;;;3.83;;
19084;SDS011;9675;51.538;6.728;2023-04-06T08:44:45;8.40;;;3.90;;
19084;SDS011;9675;51.538;6.728;2023-04-06T08:47:16;11.23;;;4.77;;
19084;SDS011;9675;51.538;6.728;2023-04-06T08:49:44;11.70;;;5.30;;
19084;SDS011;9675;51.538;6.728;2023-04-06T08:52:12;12.20;;;4.67;;
19084;SDS011;9675;51.538;6.728;2023-04-06T08:54:43;14.40;;;5.63;;
19084;SDS011;9675;51.538;6.728;2023-04-06T08:57:14;11.90;;;5.50;;
19084;SDS011;9675;51.538;6.728;2023-04-06T08:59:42;20.40;;;5.47;;
19084;SDS011;9675;51.538;6.728;2023-04-06T09:02:12;11.77;;;5.90;;
19084;SDS011;9675;51.538;6.728;2023-04-06T09:04:45;11.40;;;5.87;;
19084;SDS011;9675;51.538;6.728;2023-04-06T09:07:14;26.93;;;9.83;;
19084;SDS011;9675;51.538;6.728;2023-04-06T09:09:42;12.93;;;4.57;;
19084;SDS011;9675;51.538;6.728;2023-04-06T09:12:21;11.07;;;4.30;;
19084;SDS011;9675;51.538;6.728;2023-04-06T09:14:50;20.57;;;6.50;;
19084;SDS011;9675;51.538;6.728;2023-04-06T09:17:21;18.90;;;6.80;;
19084;SDS011;9675;51.538;6.728;2023-04-06T09:19:49;11.33;;;4.97;;
19084;SDS011;9675;51.538;6.728;2023-04-06T09:22:17;17.80;;;6.67;;
19084;SDS011;9675;51.538;6.728;2023-04-06T09:24:45;18.23;;;7.13;;
19084;SDS011;9675;51.538;6.728;2023-04-06T09:27:14;19.23;;;7.37;;
19084;SDS011;9675;51.538;6.728;2023-04-06T09:29:42;20.00;;;8.80;;
19084;SDS011;9675;51.538;6.728;2023-04-06T09:32:11;17.10;;;8.37;;
19084;SDS011;9675;51.538;6.728;2023-04-06T09:34:43;19.93;;;8.40;;
19084;SDS011;9675;51.538;6.728;2023-04-06T09:37:13;15.53;;;5.53;;
19084;SDS011;9675;51.538;6.728;2023-04-06T09:39:41;17.63;;;7.47;;
19084;SDS011;9675;51.538;6.728;2023-04-06T09:42:09;14.13;;;6.33;;
19084;SDS011;9675;51.538;6.728;2023-04-06T09:44:49;15.87;;;6.30;;
19084;SDS011;9675;51.538;6.728;2023-04-06T09:47:16;15.10;;;5.83;;
19084;SDS011;9675;51.538;6.728;2023-04-06T09:49:46;11.17;;;5.70;;
19084;SDS011;9675;51.538;6.728;2023-04-06T09:52:16;12.43;;;6.13;;
19084;SDS011;9675;51.538;6.728;2023-04-06T09:54:46;16.90;;;6.77;;
19084;SDS011;9675;51.538;6.728;2023-04-06T09:57:20;18.70;;;6.73;;
19084;SDS011;9675;51.538;6.728;2023-04-06T09:59:56;16.43;;;7.03;;
19084;SDS011;9675;51.538;6.728;2023-04-06T10:02:34;16.77;;;7.37;;
19084;SDS011;9675;51.538;6.728;2023-04-06T10:05:16;16.50;;;6.70;;
19084;SDS011;9675;51.538;6.728;2023-04-06T10:07:49;18.47;;;7.43;;
19084;SDS011;9675;51.538;6.728;2023-04-06T10:10:19;14.77;;;6.33;;
19084;SDS011;9675;51.538;6.728;2023-04-06T10:12:47;18.97;;;6.47;;
19084;SDS011;9675;51.538;6.728;2023-04-06T10:15:14;13.47;;;5.47;;
19084;SDS011;9675;51.538;6.728;2023-04-06T10:17:42;17.17;;;6.70;;
19084;SDS011;9675;51.538;6.728;2023-04-06T10:20:11;15.70;;;5.87;;
19084;SDS011;9675;51.538;6.728;2023-04-06T10:22:51;21.17;;;6.13;;
19084;SDS011;9675;51.538;6.728;2023-04-06T10:25:26;12.20;;;5.33;;
19084;SDS011;9675;51.538;6.728;2023-04-06T10:28:05;15.30;;;5.93;;
19084;SDS011;9675;51.538;6.728;2023-04-06T10:30:34;11.83;;;5.13;;
19084;SDS011;9675;51.538;6.728;2023-04-06T10:33:12;14.60;;;6.73;;
19084;SDS011;9675;51.538;6.728;2023-04-06T10:35:52;13.93;;;5.57;;
19084;SDS011;9675;51.538;6.728;2023-04-06T10:38:20;12.63;;;4.87;;
19084;SDS011;9675;51.538;6.728;2023-04-06T10:40:49;15.80;;;5.20;;
19084;SDS011;9675;51.538;6.728;2023-04-06T10:43:18;25.50;;;6.47;;
19084;SDS011;9675;51.538;6.728;2023-04-06T10:45:54;16.53;;;6.47;;
19084;SDS011;9675;51.538;6.728;2023-04-06T10:48:23;16.13;;;6.83;;
19084;SDS011;9675;51.538;6.728;2023-04-06T10:50:53;17.87;;;6.80;;
19084;SDS011;9675;51.538;6.728;2023-04-06T10:53:21;19.60;;;7.33;;
19084;SDS011;9675;51.538;6.728;2023-04-06T10:55:49;19.90;;;7.03;;
19084;SDS011;9675;51.538;6.728;2023-04-06T10:58:18;17.50;;;6.57;;
19084;SDS011;9675;51.538;6.728;2023-04-06T11:00:46;18.50;;;7.20;;
19084;SDS011;9675;51.538;6.728;2023-04-06T11:03:15;12.80;;;5.17;;
19084;SDS011;9675;51.538;6.728;2023-04-06T11:05:43;14.93;;;5.77;;
19084;SDS011;9675;51.538;6.728;2023-04-06T11:08:22;18.93;;;7.00;;
19084;SDS011;9675;51.538;6.728;2023-04-06T11:11:03;15.33;;;5.57;;
19084;SDS011;9675;51.538;6.728;2023-04-06T11:13:41;17.87;;;7.73;;
19084;SDS011;9675;51.538;6.728;2023-04-06T11:16:12;17.93;;;8.13;;
19084;SDS011;9675;51.538;6.728;2023-04-06T11:18:50;17.70;;;7.03;;
19084;SDS011;9675;51.538;6.728;2023-04-06T11:21:29;15.10;;;5.17;;
19084;SDS011;9675;51.538;6.728;2023-04-06T11:24:08;15.27;;;4.43;;
19084;SDS011;9675;51.538;6.728;2023-04-06T11:26:38;14.40;;;6.27;;
19084;SDS011;9675;51.538;6.728;2023-04-06T11:29:08;17.53;;;6.77;;
19084;SDS011;9675;51.538;6.728;2023-04-06T11:31:42;16.37;;;6.90;;
19084;SDS011;9675;51.538;6.728;2023-04-06T11:34:13;16.47;;;6.83;;
19084;SDS011;9675;51.538;6.728;2023-04-06T11:36:43;20.97;;;7.87;;
19084;SDS011;9675;51.538;6.728;2023-04-06T11:39:18;18.50;;;7.03;;
19084;SDS011;9675;51.538;6.728;2023-04-06T11:41:47;14.97;;;7.23;;
19084;SDS011;9675;51.538;6.728;2023-04-06T11:44:15;18.10;;;7.63;;
19084;SDS011;9675;51.538;6.728;2023-04-06T11:46:53;14.90;;;7.03;;
19084;SDS011;9675;51.538;6.728;2023-04-06T11:49:20;15.07;;;7.47;;
19084;SDS011;9675;51.538;6.728;2023-04-06T11:51:47;14.90;;;5.87;;
19084;SDS011;9675;51.538;6.728;2023-04-06T11:54:16;14.87;;;6.20;;
19084;SDS011;9675;51.538;6.728;2023-04-06T11:56:45;9.30;;;4.73;;
19084;SDS011;9675;51.538;6.728;2023-04-06T11:59:15;14.60;;;6.03;;
19084;SDS011;9675;51.538;6.728;2023-04-06T12:01:44;17.17;;;6.63;;
19084;SDS011;9675;51.538;6.728;2023-04-06T12:04:14;9.73;;;5.60;;
19084;SDS011;9675;51.538;6.728;2023-04-06T12:06:42;14.07;;;5.93;;
19084;SDS011;9675;51.538;6.728;2023-04-06T12:09:10;16.33;;;7.00;;
19084;SDS011;9675;51.538;6.728;2023-04-06T12:11:38;14.00;;;6.13;;
19084;SDS011;9675;51.538;6.728;2023-04-06T12:14:06;12.37;;;5.73;;
19084;SDS011;9675;51.538;6.728;2023-04-06T12:16:33;18.50;;;6.80;;
19084;SDS011;9675;51.538;6.728;2023-04-06T12:19:00;15.17;;;7.20;;
19084;SDS011;9675;51.538;6.728;2023-04-06T12:21:29;18.50;;;6.87;;
19084;SDS011;9675;51.538;6.728;2023-04-06T12:23:57;11.67;;;5.73;;
19084;SDS011;9675;51.538;6.728;2023-04-06T12:26:24;16.17;;;7.23;;
19084;SDS011;9675;51.538;6.728;2023-04-06T12:28:53;13.60;;;5.50;;
19084;SDS011;9675;51.538;6.728;2023-04-06T12:31:21;14.70;;;5.67;;
19084;SDS011;9675;51.538;6.728;2023-04-06T12:33:50;12.63;;;4.90;;
19084;SDS011;9675;51.538;6.728;2023-04-06T12:36:18;12.83;;;5.10;;
19084;SDS011;9675;51.538;6.728;2023-04-06T12:38:46;15.00;;;6.50;;
19084;SDS011;9675;51.538;6.728;2023-04-06T12:41:15;9.43;;;3.67;;
19084;SDS011;9675;51.538;6.728;2023-04-06T12:43:43;13.87;;;6.97;;
19084;SDS011;9675;51.538;6.728;2023-04-06T12:46:12;14.00;;;6.70;;
19084;SDS011;9675;51.538;6.728;2023-04-06T12:48:39;12.80;;;6.43;;
19084;SDS011;9675;51.538;6.728;2023-04-06T12:51:07;12.13;;;5.13;;
19084;SDS011;9675;51.538;6.728;2023-04-06T12:53:35;12.67;;;4.90;;
19084;SDS011;9675;51.538;6.728;2023-04-06T12:56:09;5.70;;;2.80;;
19084;SDS011;9675;51.538;6.728;2023-04-06T12:58:39;20.50;;;6.60;;
19084;SDS011;9675;51.538;6.728;2023-04-06T13:01:07;12.33;;;5.13;;
19084;SDS011;9675;51.538;6.728;2023-04-06T13:03:37;14.10;;;5.47;;
19084;SDS011;9675;51.538;6.728;2023-04-06T13:06:04;7.73;;;4.50;;
19084;SDS011;9675;51.538;6.728;2023-04-06T13:08:33;13.00;;;3.57;;
19084;SDS011;9675;51.538;6.728;2023-04-06T13:11:01;9.03;;;4.80;;
19084;SDS011;9675;51.538;6.728;2023-04-06T13:13:28;7.50;;;3.20;;
19084;SDS011;9675;51.538;6.728;2023-04-06T13:15:59;13.83;;;4.97;;
19084;SDS011;9675;51.538;6.728;2023-04-06T13:18:28;8.37;;;4.10;;
19084;SDS011;9675;51.538;6.728;2023-04-06T13:20:58;7.10;;;3.60;;
19084;SDS011;9675;51.538;6.728;2023-04-06T13:23:26;8.50;;;3.47;;
19084;SDS011;9675;51.538;6.728;2023-04-06T13:25:56;6.80;;;3.00;;
19084;SDS011;9675;51.538;6.728;2023-04-06T13:28:26;5.90;;;2.87;;
19084;SDS011;9675;51.538;6.728;2023-04-06T13:30:54;5.43;;;2.87;;
19084;SDS011;9675;51.538;6.728;2023-04-06T13:33:24;7.77;;;4.33;;
19084;SDS011;9675;51.538;6.728;2023-04-06T13:35:51;5.87;;;3.00;;
19084;SDS011;9675;51.538;6.728;2023-04-06T13:38:20;8.80;;;3.97;;
19084;SDS011;9675;51.538;6.728;2023-04-06T13:40:49;5.03;;;2.80;;
19084;SDS011;9675;51.538;6.728;2023-04-06T13:43:16;3.80;;;2.20;;
19084;SDS011;9675;51.538;6.728;2023-04-06T13:45:49;4.83;;;2.47;;
19084;SDS011;9675;51.538;6.728;2023-04-06T13:48:19;4.87;;;3.03;;
19084;SDS011;9675;51.538;6.728;2023-04-06T13:50:46;5.80;;;2.63;;
19084;SDS011;9675;51.538;6.728;2023-04-06T13:53:13;7.90;;;3.03;;
19084;SDS011;9675;51.538;6.728;2023-04-06T13:55:42;6.93;;;3.37;;
19084;SDS011;9675;51.538;6.728;2023-04-06T13:58:09;7.63;;;3.50;;
19084;SDS011;9675;51.538;6.728;2023-04-06T14:00:37;8.77;;;4.00;;
19084;SDS011;9675;51.538;6.728;2023-04-06T14:03:05;12.57;;;2.47;;
19084;SDS011;9675;51.538;6.728;2023-04-06T14:05:32;5.90;;;2.57;;
19084;SDS011;9675;51.538;6.728;2023-04-06T14:08:00;9.60;;;3.57;;
19084;SDS011;9675;51.538;6.728;2023-04-06T14:10:27;7.13;;;2.63;;
19084;SDS011;9675;51.538;6.728;2023-04-06T14:12:56;9.67;;;3.83;;
19084;SDS011;9675;51.538;6.728;2023-04-06T14:15:23;8.20;;;4.20;;
19084;SDS011;9675;51.538;6.728;2023-04-06T14:17:50;6.67;;;3.60;;
19084;SDS011;9675;51.538;6.728;2023-04-06T14:20:17;10.30;;;3.53;;
19084;SDS011;9675;51.538;6.728;2023-04-06T14:22:45;5.77;;;3.37;;
19084;SDS011;9675;51.538;6.728;2023-04-06T14:25:14;8.03;;;3.77;;
19084;SDS011;9675;51.538;6.728;2023-04-06T14:27:42;6.97;;;3.20;;
19084;SDS011;9675;51.538;6.728;2023-04-06T14:30:11;6.07;;;2.90;;
19084;SDS011;9675;51.538;6.728;2023-04-06T14:32:39;4.90;;;2.23;;
19084;SDS011;9675;51.538;6.728;2023-04-06T14:35:07;4.73;;;2.83;;
19084;SDS011;9675;51.538;6.728;2023-04-06T14:37:35;5.77;;;3.37;;
19084;SDS011;9675;51.538;6.728;2023-04-06T14:40:02;6.30;;;3.43;;
19084;SDS011;9675;51.538;6.728;2023-04-06T14:42:30;8.27;;;3.87;;
19084;SDS011;9675;51.538;6.728;2023-04-06T14:44:58;6.47;;;3.37;;
19084;SDS011;9675;51.538;6.728;2023-04-06T14:47:27;6.07;;;3.33;;
19084;SDS011;9675;51.538;6.728;2023-04-06T14:49:54;7.93;;;3.60;;
19084;SDS011;9675;51.538;6.728;2023-04-06T14:52:22;9.57;;;3.23;;
19084;SDS011;9675;51.538;6.728;2023-04-06T14:54:49;9.53;;;4.67;;
19084;SDS011;9675;51.538;6.728;2023-04-06T14:57:16;10.70;;;4.60;;
19084;SDS011;9675;51.538;6.728;2023-04-06T14:59:43;9.13;;;5.00;;
19084;SDS011;9675;51.538;6.728;2023-04-06T15:02:11;8.67;;;4.23;;
19084;SDS011;9675;51.538;6.728;2023-04-06T15:04:39;9.57;;;4.73;;
19084;SDS011;9675;51.538;6.728;2023-04-06T15:07:06;8.23;;;3.80;;